createdAt,value
2018-07-02T00:00:25.344Z,53.10
2018-07-02T00:02:52.676Z,52.10
2018-07-02T00:05:19.978Z,53.10
2018-07-02T00:07:47.375Z,52.00
2018-07-02T00:12:42.003Z,52.20
2018-07-02T00:15:09.737Z,52.10
2018-07-02T00:17:37.224Z,53.90
2018-07-02T00:20:05.481Z,55.50
2018-07-02T00:22:32.783Z,55.70
2018-07-02T00:25:00.102Z,54.80
2018-07-02T00:27:27.400Z,55.50
2018-07-02T00:29:54.727Z,55.80
2018-07-02T00:32:22.012Z,55.70
2018-07-02T00:34:49.314Z,55.70
2018-07-02T00:37:16.626Z,56.50
2018-07-02T00:39:43.922Z,57.30
2018-07-02T00:42:11.224Z,57.60
2018-07-02T00:44:38.542Z,57.20
2018-07-02T00:47:05.870Z,57.80
2018-07-02T00:52:00.524Z,58.50
2018-07-02T00:54:27.846Z,59.10
2018-07-02T00:56:59.087Z,59.20
2018-07-02T00:59:26.378Z,58.50
2018-07-02T01:01:53.703Z,58.70
2018-07-02T01:04:21.032Z,60.40
2018-07-02T01:06:48.355Z,60.90
2018-07-02T01:09:15.677Z,61.50
2018-07-02T01:11:42.965Z,61.20
2018-07-02T01:14:10.628Z,61.30
2018-07-02T01:16:37.904Z,60.90
2018-07-02T01:19:05.218Z,60.10
2018-07-02T01:21:32.532Z,59.70
2018-07-02T01:23:59.806Z,60.50
2018-07-02T01:26:27.106Z,61.00
2018-07-02T01:28:54.391Z,61.00
2018-07-02T01:31:21.702Z,60.50
2018-07-02T01:33:49.000Z,61.80
2018-07-02T01:36:16.287Z,62.00
2018-07-02T01:38:43.567Z,62.00
2018-07-02T01:41:10.891Z,61.60
2018-07-02T01:43:38.176Z,61.80
2018-07-02T01:46:05.495Z,62.00
2018-07-02T01:48:32.793Z,61.90
2018-07-02T01:51:00.111Z,62.70
2018-07-02T01:53:27.399Z,63.20
2018-07-02T01:55:54.699Z,63.40
2018-07-02T01:58:21.975Z,62.90
2018-07-02T02:00:49.330Z,63.30
2018-07-02T02:03:16.614Z,63.10
2018-07-02T02:05:43.912Z,61.20
2018-07-02T02:08:11.249Z,63.10
2018-07-02T02:10:38.590Z,64.30
2018-07-02T02:13:05.901Z,63.60
2018-07-02T02:15:33.332Z,61.70
2018-07-02T02:18:00.610Z,62.60
2018-07-02T02:20:27.928Z,62.70
2018-07-02T02:22:55.340Z,64.60
2018-07-02T02:27:49.844Z,64.30
2018-07-02T02:30:17.139Z,64.10
2018-07-02T02:32:44.516Z,64.70
2018-07-02T02:35:11.824Z,65.70
2018-07-02T02:40:06.577Z,66.20
2018-07-02T02:42:33.992Z,66.00
2018-07-02T02:47:28.772Z,64.50
2018-07-02T02:49:56.092Z,64.20
2018-07-02T02:52:23.375Z,63.90
2018-07-02T02:54:50.676Z,65.50
2018-07-02T02:57:17.987Z,64.60
2018-07-02T02:59:45.263Z,65.80
2018-07-02T03:02:12.575Z,65.90
2018-07-02T03:04:39.870Z,65.20
2018-07-02T03:07:07.168Z,65.40
2018-07-02T03:09:34.670Z,65.30
2018-07-02T03:12:02.164Z,65.20
2018-07-02T03:14:38.384Z,65.20
2018-07-02T03:17:07.141Z,65.80
2018-07-02T03:19:34.468Z,65.60
2018-07-02T03:22:01.767Z,65.00
2018-07-02T03:24:29.091Z,64.60
2018-07-02T03:29:23.705Z,64.90
2018-07-02T03:31:50.977Z,65.30
2018-07-02T03:36:45.602Z,67.10
2018-07-02T03:39:13.012Z,68.30
2018-07-02T03:41:40.316Z,67.40
2018-07-02T03:44:07.679Z,67.10
2018-07-02T03:46:35.200Z,66.70
2018-07-02T03:49:02.527Z,67.60
2018-07-02T03:51:29.803Z,67.00
2018-07-02T03:53:57.164Z,67.50
2018-07-02T03:56:24.502Z,68.40
2018-07-02T03:58:51.819Z,66.60
2018-07-02T04:01:19.149Z,65.90
2018-07-02T04:03:46.476Z,65.10
2018-07-02T04:06:13.860Z,66.00
2018-07-02T04:08:41.159Z,64.50
2018-07-02T04:11:08.513Z,66.10
2018-07-02T04:13:35.873Z,65.00
2018-07-02T04:16:03.508Z,66.20
2018-07-02T04:18:30.795Z,65.20
2018-07-02T04:20:58.127Z,65.40
2018-07-02T04:28:19.931Z,63.90
2018-07-02T04:30:47.242Z,65.10
2018-07-02T04:33:14.511Z,62.50
2018-07-02T04:35:41.854Z,62.40
2018-07-02T04:38:09.157Z,63.10
2018-07-02T04:40:36.479Z,65.50
2018-07-02T04:43:04.153Z,65.30
2018-07-02T04:45:31.132Z,66.10
2018-07-02T04:47:58.436Z,65.30
2018-07-02T04:50:25.718Z,64.60
2018-07-02T04:52:53.174Z,65.30
2018-07-02T04:55:20.476Z,64.70
2018-07-02T04:57:47.779Z,64.80
2018-07-02T05:00:15.140Z,64.10
2018-07-02T05:02:42.422Z,63.20
2018-07-02T05:05:09.703Z,62.30
2018-07-02T05:07:37.013Z,63.30
2018-07-02T05:12:31.580Z,60.60
2018-07-02T05:14:58.863Z,59.40
2018-07-02T05:17:26.153Z,59.10
2018-07-02T05:24:48.000Z,57.60
2018-07-02T05:27:15.281Z,57.20
2018-07-02T05:29:43.494Z,57.70
2018-07-02T05:32:10.785Z,55.00
2018-07-02T05:34:38.059Z,55.10
2018-07-02T05:37:05.360Z,55.20
2018-07-02T05:39:32.634Z,52.90
2018-07-02T05:41:59.914Z,53.30
2018-07-02T05:44:27.195Z,52.90
2018-07-02T05:46:54.447Z,50.50
2018-07-02T05:49:21.767Z,50.00
2018-07-02T05:51:49.059Z,49.30
2018-07-02T05:54:16.375Z,46.50
2018-07-02T05:56:44.247Z,47.60
2018-07-02T05:59:11.516Z,46.40
2018-07-02T06:04:06.098Z,44.90
2018-07-02T06:06:33.361Z,44.40
2018-07-02T06:09:00.667Z,46.20
2018-07-02T06:11:27.972Z,45.20
2018-07-02T06:13:55.259Z,45.70
2018-07-02T06:16:22.522Z,43.10
2018-07-02T06:18:49.797Z,43.20
2018-07-02T06:21:17.070Z,42.10
2018-07-02T06:23:44.343Z,41.30
2018-07-02T06:26:11.619Z,40.80
2018-07-02T06:28:38.891Z,41.90
2018-07-02T06:31:06.155Z,41.40
2018-07-02T06:33:33.434Z,40.30
2018-07-02T06:38:27.983Z,40.70
2018-07-02T06:40:55.279Z,38.10
2018-07-02T06:43:22.547Z,37.30
2018-07-02T06:45:49.970Z,36.90
2018-07-02T06:50:44.507Z,33.00
2018-07-02T06:53:11.768Z,33.60
2018-07-02T06:55:39.056Z,32.00
2018-07-02T06:58:06.339Z,32.10
2018-07-02T07:00:33.643Z,31.70
2018-07-02T07:03:00.922Z,29.90
2018-07-02T07:07:55.458Z,28.70
2018-07-02T07:10:22.756Z,28.80
2018-07-02T07:12:50.032Z,27.20
2018-07-02T07:15:17.325Z,27.30
2018-07-02T07:17:44.596Z,27.10
2018-07-02T07:20:11.896Z,26.50
2018-07-02T07:22:39.155Z,25.70
2018-07-02T07:25:06.466Z,24.50
2018-07-02T07:27:33.802Z,24.40
2018-07-02T07:30:01.031Z,24.60
2018-07-02T07:32:28.320Z,24.50
2018-07-02T07:34:55.609Z,23.80
2018-07-02T07:37:22.949Z,23.60
2018-07-02T07:39:50.184Z,24.50
2018-07-02T07:42:17.450Z,23.00
2018-07-02T07:44:44.760Z,23.00
2018-07-02T07:47:12.024Z,23.20
2018-07-02T07:49:39.359Z,22.20
2018-07-02T07:52:06.642Z,21.40
2018-07-02T07:54:33.922Z,21.00
2018-07-02T07:57:01.223Z,21.80
2018-07-02T07:59:28.540Z,21.00
2018-07-02T08:01:55.847Z,21.50
2018-07-02T08:04:23.106Z,21.70
2018-07-02T08:06:50.433Z,21.90
2018-07-02T08:11:45.059Z,19.40
2018-07-02T08:14:12.359Z,19.40
2018-07-02T08:16:39.952Z,18.90
2018-07-02T08:19:07.239Z,18.40
2018-07-02T08:21:34.531Z,18.50
2018-07-02T08:24:01.991Z,18.40
2018-07-02T08:26:29.338Z,18.10
2018-07-02T08:28:56.746Z,17.70
2018-07-02T08:33:51.352Z,17.20
2018-07-02T08:36:18.659Z,16.90
2018-07-02T08:38:46.055Z,16.60
2018-07-02T08:41:13.393Z,17.10
2018-07-02T08:43:40.665Z,17.40
2018-07-02T08:46:08.036Z,16.80
2018-07-02T08:48:35.300Z,16.80
2018-07-02T08:51:02.627Z,15.60
2018-07-02T08:53:29.907Z,15.90
2018-07-02T08:55:57.194Z,16.00
2018-07-02T08:58:24.488Z,15.60
2018-07-02T09:00:51.750Z,16.00
2018-07-02T09:03:19.027Z,15.50
2018-07-02T09:05:46.305Z,15.40
2018-07-02T09:08:13.593Z,15.70
2018-07-02T09:10:40.888Z,15.70
2018-07-02T09:15:35.690Z,14.60
2018-07-02T09:18:03.024Z,14.90
2018-07-02T09:20:30.339Z,15.30
2018-07-02T09:22:57.655Z,14.20
2018-07-02T09:25:24.941Z,15.10
2018-07-02T09:27:52.231Z,14.00
2018-07-02T09:30:19.497Z,16.50
2018-07-02T09:32:46.786Z,15.10
2018-07-02T09:35:14.048Z,14.70
2018-07-02T09:40:08.581Z,15.20
2018-07-02T09:47:30.384Z,13.60
2018-07-02T09:49:57.693Z,13.60
2018-07-02T09:52:24.950Z,13.50
2018-07-02T09:54:52.232Z,14.00
2018-07-02T09:57:19.491Z,13.40
2018-07-02T09:59:46.780Z,13.70
2018-07-02T10:02:14.042Z,13.30
2018-07-02T10:04:41.330Z,13.00
2018-07-02T10:07:08.635Z,14.50
2018-07-02T10:09:35.938Z,13.80
2018-07-02T10:12:03.212Z,13.20
2018-07-02T10:14:30.503Z,12.30
2018-07-02T10:16:57.802Z,13.80
2018-07-02T10:19:25.151Z,13.60
2018-07-02T10:21:52.426Z,14.00
2018-07-02T10:24:19.706Z,13.40
2018-07-02T10:26:46.988Z,12.80
2018-07-02T10:29:14.316Z,14.00
2018-07-02T10:31:41.632Z,13.10
2018-07-02T10:34:08.920Z,13.80
2018-07-02T10:39:06.357Z,13.40
2018-07-02T10:41:33.666Z,16.10
2018-07-02T10:44:00.947Z,13.40
2018-07-02T10:46:28.204Z,14.90
2018-07-02T10:48:55.499Z,12.70
2018-07-02T10:51:22.824Z,12.90
2018-07-02T10:53:50.096Z,13.30
2018-07-02T10:56:17.411Z,12.80
2018-07-02T10:58:44.707Z,12.60
2018-07-02T11:01:12.028Z,13.60
2018-07-02T11:03:39.334Z,12.40
2018-07-02T11:06:06.675Z,12.90
2018-07-02T11:08:33.955Z,12.90
2018-07-02T11:11:01.265Z,13.50
2018-07-02T11:13:29.000Z,13.10
2018-07-02T11:15:56.330Z,11.60
2018-07-02T11:20:51.119Z,11.70
2018-07-02T11:23:18.508Z,12.60
2018-07-02T11:25:45.827Z,13.30
2018-07-02T11:28:13.318Z,12.50
2018-07-02T11:30:40.651Z,12.50
2018-07-02T11:33:07.940Z,10.90
2018-07-02T11:35:35.239Z,11.80
2018-07-02T11:38:02.545Z,11.80
2018-07-02T11:40:29.830Z,11.70
2018-07-02T11:42:57.117Z,13.40
2018-07-02T11:45:24.437Z,12.60
2018-07-02T11:50:19.016Z,11.60
2018-07-02T11:52:46.313Z,13.40
2018-07-02T11:55:13.883Z,11.90
2018-07-02T11:57:41.207Z,11.80
2018-07-02T12:00:09.054Z,12.20
2018-07-02T12:02:36.484Z,11.40
2018-07-02T12:05:04.100Z,12.40
2018-07-02T12:07:31.411Z,12.20
2018-07-02T12:09:58.803Z,12.20
2018-07-02T12:12:27.335Z,13.60
2018-07-02T12:14:54.624Z,17.10
2018-07-02T12:17:22.226Z,17.90
2018-07-02T12:19:49.520Z,17.20
2018-07-02T12:22:16.811Z,19.10
2018-07-02T12:24:44.098Z,21.80
2018-07-02T12:27:11.441Z,18.70
2018-07-02T12:29:38.726Z,20.10
2018-07-02T12:32:06.008Z,20.60
2018-07-02T12:37:00.575Z,24.00
2018-07-02T12:39:27.863Z,22.70
2018-07-02T12:41:55.118Z,22.90
2018-07-02T12:46:49.776Z,20.60
2018-07-02T12:49:16.995Z,21.60
2018-07-02T12:51:44.271Z,22.20
2018-07-02T12:54:11.663Z,21.30
2018-07-02T12:59:06.414Z,21.90
2018-07-02T13:01:33.725Z,21.60
2018-07-02T13:04:01.441Z,25.00
2018-07-02T13:06:28.851Z,21.90
2018-07-02T13:08:56.179Z,21.20
2018-07-02T13:11:23.485Z,21.60
2018-07-02T13:13:50.812Z,24.00
2018-07-02T13:16:18.075Z,24.20
2018-07-02T13:18:45.411Z,23.60
2018-07-02T13:21:12.695Z,23.30
2018-07-02T13:23:40.008Z,22.30
2018-07-02T13:26:07.322Z,24.00
2018-07-02T13:28:34.700Z,21.70
2018-07-02T13:31:02.024Z,21.40
2018-07-02T13:33:29.376Z,22.60
2018-07-02T13:35:56.679Z,21.30
2018-07-02T13:38:23.996Z,25.00
2018-07-02T13:40:51.307Z,20.50
2018-07-02T13:43:18.638Z,21.50
2018-07-02T13:45:46.084Z,20.80
2018-07-02T13:48:13.347Z,22.30
2018-07-02T13:50:40.643Z,21.90
2018-07-02T13:53:07.919Z,22.50
2018-07-02T13:55:35.215Z,22.90
2018-07-02T13:58:02.508Z,22.80
2018-07-02T14:00:30.000Z,21.90
2018-07-02T14:02:57.511Z,23.10
2018-07-02T14:05:24.798Z,22.10
2018-07-02T14:10:20.983Z,23.20
2018-07-02T14:12:48.304Z,21.30
2018-07-02T14:15:15.660Z,21.60
2018-07-02T14:17:43.908Z,20.70
2018-07-02T14:20:11.170Z,21.70
2018-07-02T14:22:38.587Z,22.60
2018-07-02T14:25:05.923Z,22.80
2018-07-02T14:27:33.211Z,22.20
2018-07-02T14:30:01.261Z,22.10
2018-07-02T14:32:28.611Z,19.50
2018-07-02T14:37:23.545Z,22.50
2018-07-02T14:39:50.882Z,21.80
2018-07-02T14:42:18.175Z,19.80
2018-07-02T14:44:45.566Z,19.90
2018-07-02T14:47:12.968Z,19.70
2018-07-02T14:49:40.900Z,19.80
2018-07-02T14:54:35.536Z,21.60
2018-07-02T14:57:03.976Z,22.10
2018-07-02T14:59:31.383Z,21.40
2018-07-02T15:01:58.659Z,21.70
2018-07-02T15:06:54.179Z,22.50
2018-07-02T15:09:22.961Z,22.00
2018-07-02T15:11:50.275Z,23.40
2018-07-02T15:14:17.576Z,21.70
2018-07-02T15:16:44.918Z,22.50
2018-07-02T15:21:39.529Z,21.10
2018-07-02T15:24:14.753Z,21.70
2018-07-02T15:26:42.075Z,21.80
2018-07-02T15:29:09.388Z,23.00
2018-07-02T15:31:36.719Z,22.40
2018-07-02T15:34:04.770Z,23.60
2018-07-02T15:36:32.087Z,21.60
2018-07-02T15:38:59.403Z,23.10
2018-07-02T15:41:26.753Z,22.50
2018-07-02T15:43:54.090Z,21.70
2018-07-02T15:46:21.417Z,21.10
2018-07-02T15:51:16.050Z,22.40
2018-07-02T15:56:10.659Z,22.00
2018-07-02T15:58:38.035Z,22.10
2018-07-02T16:01:05.327Z,21.20
2018-07-02T16:03:32.610Z,21.60
2018-07-02T16:05:59.903Z,21.50
2018-07-02T16:08:27.174Z,22.50
2018-07-02T16:10:54.478Z,21.60
2018-07-02T16:15:49.422Z,21.40
2018-07-02T16:18:16.735Z,22.70
2018-07-02T16:20:44.038Z,22.90
2018-07-02T16:23:11.404Z,21.90
2018-07-02T16:25:38.724Z,23.10
2018-07-02T16:28:06.317Z,23.40
2018-07-02T16:30:33.659Z,23.10
2018-07-02T16:33:01.751Z,22.50
2018-07-02T16:35:29.122Z,23.10
2018-07-02T16:37:57.183Z,22.70
2018-07-02T16:40:25.280Z,22.50
2018-07-02T16:42:54.196Z,21.80
2018-07-02T16:47:49.700Z,21.60
2018-07-02T16:50:17.035Z,21.80
2018-07-02T16:52:46.111Z,22.50
2018-07-02T16:55:13.396Z,22.40
2018-07-02T16:57:40.719Z,21.80
2018-07-02T17:05:03.523Z,21.20
2018-07-02T17:07:30.842Z,20.90
2018-07-02T17:09:58.190Z,21.00
2018-07-02T17:12:25.564Z,22.10
2018-07-02T17:14:52.851Z,21.80
2018-07-02T17:17:20.288Z,21.20
2018-07-02T17:19:47.596Z,21.80
2018-07-02T17:22:14.952Z,21.90
2018-07-02T17:24:42.392Z,21.80
2018-07-02T17:27:09.848Z,22.30
2018-07-02T17:29:37.156Z,22.50
2018-07-02T17:32:04.511Z,22.40
2018-07-02T17:34:31.799Z,21.80
2018-07-02T17:36:59.082Z,22.60
2018-07-02T17:39:26.415Z,22.70
2018-07-02T17:41:53.687Z,22.30
2018-07-02T17:44:20.983Z,21.40
2018-07-02T17:46:48.294Z,21.80
2018-07-02T17:49:15.608Z,20.90
2018-07-02T17:51:42.866Z,21.30
2018-07-02T17:54:10.187Z,21.40
2018-07-02T17:56:37.484Z,21.70
2018-07-02T17:59:04.791Z,21.20
2018-07-02T18:01:32.103Z,21.60
2018-07-02T18:03:59.427Z,21.60
2018-07-02T18:06:26.750Z,22.00
2018-07-02T18:08:54.187Z,23.10
2018-07-02T18:11:21.475Z,22.30
2018-07-02T18:13:49.262Z,22.70
2018-07-02T18:16:16.616Z,23.30
2018-07-02T18:18:44.030Z,24.30
2018-07-02T18:21:11.322Z,23.90
2018-07-02T18:26:05.940Z,24.30
2018-07-02T18:31:00.516Z,24.80
2018-07-02T18:33:27.851Z,24.60
2018-07-02T18:35:55.195Z,24.10
2018-07-02T18:38:22.568Z,23.40
2018-07-02T18:40:49.921Z,25.10
2018-07-02T18:43:17.281Z,25.80
2018-07-02T18:45:44.574Z,25.20
2018-07-02T18:48:11.894Z,25.60
2018-07-02T18:50:39.213Z,25.90
2018-07-02T18:53:06.598Z,25.80
2018-07-02T18:55:33.978Z,25.90
2018-07-02T19:00:28.519Z,26.20
2018-07-02T19:02:55.809Z,26.40
2018-07-02T19:05:23.190Z,26.70
2018-07-02T19:07:50.959Z,27.10
2018-07-02T19:10:18.266Z,27.30
2018-07-02T19:12:45.623Z,27.10
2018-07-02T19:15:12.974Z,28.30
2018-07-02T19:17:40.270Z,27.60
2018-07-02T19:20:07.635Z,27.40
2018-07-02T19:22:34.972Z,28.00
2018-07-02T19:25:02.345Z,28.50
2018-07-02T19:27:29.701Z,28.90
2018-07-02T19:29:57.004Z,28.90
2018-07-02T19:32:24.330Z,29.60
2018-07-02T19:34:51.656Z,28.80
2018-07-02T19:39:46.314Z,29.60
2018-07-02T19:42:13.624Z,30.30
2018-07-02T19:47:10.347Z,29.90
2018-07-02T19:49:37.691Z,29.70
2018-07-02T19:52:05.152Z,30.00
2018-07-02T19:54:32.482Z,30.70
2018-07-02T19:56:59.759Z,29.90
2018-07-02T19:59:27.085Z,30.20
2018-07-02T20:01:54.435Z,30.60
2018-07-02T20:04:21.714Z,30.40
2018-07-02T20:06:49.343Z,30.50
2018-07-02T20:09:17.315Z,30.40
2018-07-02T20:11:45.314Z,30.70
2018-07-02T20:14:13.436Z,31.00
2018-07-02T20:16:41.338Z,31.20
2018-07-02T20:19:09.556Z,30.80
2018-07-02T20:21:37.694Z,31.00
2018-07-02T20:24:05.811Z,31.30
2018-07-02T20:26:33.769Z,31.30
2018-07-02T20:29:01.665Z,31.80
2018-07-02T20:33:56.303Z,32.10
2018-07-02T20:36:23.606Z,32.10
2018-07-02T20:41:18.215Z,33.70
2018-07-02T20:43:45.575Z,34.00
2018-07-02T20:46:12.966Z,34.20
2018-07-02T20:48:40.322Z,34.20
2018-07-02T20:51:07.714Z,35.10
2018-07-02T20:53:35.428Z,35.40
2018-07-02T20:56:02.791Z,35.20
2018-07-02T20:58:30.108Z,34.80
2018-07-02T21:00:57.432Z,34.80
2018-07-02T21:03:24.756Z,34.90
2018-07-02T21:05:52.336Z,35.90
2018-07-02T21:08:19.732Z,36.40
2018-07-02T21:10:47.149Z,39.00
2018-07-02T21:13:14.440Z,38.00
2018-07-02T21:18:09.016Z,37.80
2018-07-02T21:20:36.311Z,38.70
2018-07-02T21:23:03.588Z,38.10
2018-07-02T21:25:30.878Z,37.50
2018-07-02T21:27:58.118Z,38.20
2018-07-02T21:30:25.515Z,38.30
2018-07-02T21:32:52.822Z,38.20
2018-07-02T21:35:20.115Z,38.00
2018-07-02T21:37:47.390Z,38.70
2018-07-02T21:45:09.271Z,43.60
2018-07-02T21:47:36.542Z,44.90
2018-07-02T21:52:31.499Z,46.60
2018-07-02T21:54:58.803Z,45.60
2018-07-02T21:57:26.083Z,47.00
2018-07-02T21:59:53.401Z,47.20
2018-07-02T22:02:20.718Z,46.80
2018-07-02T22:04:48.191Z,47.30
2018-07-02T22:07:15.504Z,46.80
2018-07-02T22:09:42.812Z,46.30
2018-07-02T22:12:10.184Z,46.30
2018-07-02T22:14:37.479Z,46.20
2018-07-02T22:17:04.851Z,45.90
2018-07-02T22:19:33.212Z,46.80
2018-07-02T22:22:00.490Z,47.80
2018-07-02T22:24:27.765Z,48.10
2018-07-02T22:26:55.043Z,47.80
2018-07-02T22:29:22.315Z,47.20
2018-07-02T22:34:18.508Z,47.60
2018-07-02T22:36:45.827Z,48.10
2018-07-02T22:39:13.183Z,46.60
2018-07-02T22:41:40.603Z,47.00
2018-07-02T22:44:08.827Z,45.80
2018-07-02T22:46:36.265Z,46.60
2018-07-02T22:49:03.620Z,46.70
2018-07-02T22:51:30.974Z,47.60
2018-07-02T22:53:58.291Z,48.30
2018-07-02T22:56:25.580Z,47.40
2018-07-02T22:58:52.963Z,47.20
2018-07-02T23:01:20.331Z,46.90
2018-07-02T23:03:47.772Z,46.10
2018-07-02T23:06:15.080Z,47.80
2018-07-02T23:08:42.371Z,49.20
2018-07-02T23:11:09.642Z,51.40
2018-07-02T23:13:37.019Z,52.60
2018-07-02T23:16:04.745Z,52.20
2018-07-02T23:18:33.071Z,52.60
2018-07-02T23:21:00.487Z,52.30
2018-07-02T23:23:27.806Z,51.40
2018-07-02T23:25:55.082Z,51.90
2018-07-02T23:28:23.451Z,52.20
2018-07-02T23:33:18.004Z,52.50
2018-07-02T23:35:45.270Z,53.50
2018-07-02T23:38:12.576Z,53.70
2018-07-02T23:40:39.839Z,55.10
2018-07-02T23:43:07.111Z,54.80
2018-07-02T23:45:34.358Z,54.60
2018-07-02T23:48:01.649Z,55.00
2018-07-02T23:50:29.052Z,55.50
2018-07-02T23:55:23.647Z,56.30
2018-07-02T23:57:50.927Z,55.30
